Time;durP1;ratioP1;P1;durP2;ratioP2;P2;SDS_P1;SDS_P2;PMS_P1;PMS_P2;Temp;Humidity;BMP_temperature;BMP_pressure;BME280_temperature;BME280_humidity;BME280_pressure;Samples;Min_cycle;Max_cycle;Signal;HPM_P1;HPM_P2
2022/09/06 00:01:55;;;;;;;;;;;;;;;22.00;59.78;95625.44;5074587;28;20491;-65
2022/09/06 00:04:20;;;;;;;;;;;;;;;21.95;59.92;95617.63;5092342;28;20035;-64
2022/09/06 00:06:46;;;;;;;;;;;;;;;21.88;60.16;95618.31;5092477;28;20016;-66
2022/09/06 00:09:11;;;;;;;;;;;;;;;21.84;60.32;95617.47;5092441;28;20027;-65
2022/09/06 00:11:37;;;;;;;;;;;;;;;21.83;60.19;95615.13;5077299;28;20441;-65
2022/09/06 00:14:02;;;;;;;;;;;;;;;21.75;60.43;95615.03;5054583;28;20033;-65
2022/09/06 00:16:27;;;;;;;;;;;;;;;21.76;60.41;95624.72;5072602;28;20474;-65
2022/09/06 00:18:53;;;;;;;;;;;;;;;21.72;60.57;95625.81;5054650;28;20108;-65
2022/09/06 00:21:20;;;;;;;;;;;;;;;21.64;60.97;95629.53;5072534;28;20020;-64
2022/09/06 00:23:45;;;;;;;;;;;;;;;21.60;61.16;95618.66;5054366;28;20450;-65
2022/09/06 00:26:11;;;;;;;;;;;;;;;21.63;61.06;95617.94;5071180;28;20061;-65
2022/09/06 00:28:36;;;;;;;;;;;;;;;21.62;60.89;95616.38;5072295;28;20107;-64
2022/09/06 00:31:09;;;;;;;;;;;;;;;21.60;60.74;95613.25;5072254;28;20175;-64
2022/09/06 00:33:34;;;;;;;;;;;;;;;21.58;60.79;95612.81;5071914;28;20027;-64
2022/09/06 00:36:00;;;;;;;;;;;;;;;21.56;60.82;95614.34;5054040;28;20494;-65
2022/09/06 00:38:25;;;;;;;;;;;;;;;21.50;60.88;95603.81;5072291;28;20009;-65
2022/09/06 00:40:50;;;;;;;;;;;;;;;21.43;60.99;95609.09;5052617;28;20017;-64
2022/09/06 00:43:15;;;;;;;;;;;;;;;21.43;61.20;95616.44;5053798;28;20500;-65
2022/09/06 00:45:41;;;;;;;;;;;;;;;21.39;61.20;95616.38;5071170;28;20044;-65
2022/09/06 00:48:06;;;;;;;;;;;;;;;21.39;61.33;95618.31;5054004;28;20009;-64
2022/09/06 00:50:31;;;;;;;;;;;;;;;21.41;61.13;95618.75;5053840;28;20009;-65
2022/09/06 00:52:56;;;;;;;;;;;;;;;21.41;61.10;95619.50;5053592;28;20013;-64
2022/09/06 00:55:23;;;;;;;;;;;;;;;21.36;61.25;95619.03;5071048;28;20066;-65
2022/09/06 00:57:50;;;;;;;;;;;;;;;21.34;61.21;95618.59;5071729;28;20009;-64
2022/09/06 01:00:16;;;;;;;;;;;;;;;21.36;61.23;95630.66;5071594;28;20503;-64
2022/09/06 01:02:41;;;;;;;;;;;;;;;21.34;61.44;95629.44;5071166;28;20096;-65
2022/09/06 01:05:07;;;;;;;;;;;;;;;21.34;61.45;95624.00;5071391;28;20056;-64
2022/09/06 01:07:32;;;;;;;;;;;;;;;21.31;61.37;95625.53;5053524;28;20416;-65
2022/09/06 01:10:16;;;;;;;;;;;;;;;21.29;61.09;95631.28;5071444;28;20469;-65
2022/09/06 01:12:51;;;;;;;;;;;;;;;21.26;61.29;95633.91;5052114;28;20389;-65
2022/09/06 01:15:21;;;;;;;;;;;;;;;21.23;61.27;95630.00;5071562;28;20019;-64
2022/09/06 01:17:47;;;;;;;;;;;;;;;21.07;61.67;95636.66;5053601;28;20009;-65
2022/09/06 01:20:27;;;;;;;;;;;;;;;21.00;61.97;95637.31;5071086;28;20393;-65
2022/09/06 01:22:55;;;;;;;;;;;;;;;20.97;61.99;95627.22;5071013;28;20005;-65
2022/09/06 01:25:20;;;;;;;;;;;;;;;20.94;61.97;95628.72;5071164;28;20484;-65
2022/09/06 01:27:55;;;;;;;;;;;;;;;20.91;61.99;95631.34;5052334;28;20019;-64
2022/09/06 01:30:20;;;;;;;;;;;;;;;20.88;62.17;95632.06;5071135;28;20009;-64
2022/09/06 01:33:05;;;;;;;;;;;;;;;20.86;62.14;95631.63;5053029;28;20014;-64
2022/09/06 01:35:31;;;;;;;;;;;;;;;20.86;62.29;95631.63;5052964;28;20033;-64
2022/09/06 01:37:57;;;;;;;;;;;;;;;20.78;62.67;95641.56;5052949;28;20477;-65
2022/09/06 01:40:22;;;;;;;;;;;;;;;20.80;62.48;95652.00;5052854;28;20017;-64
2022/09/06 01:42:49;;;;;;;;;;;;;;;20.80;62.53;95647.38;5051562;28;20808;-65
2022/09/06 01:45:16;;;;;;;;;;;;;;;20.79;62.44;95645.03;5070884;28;20049;-64
2022/09/06 01:47:41;;;;;;;;;;;;;;;20.70;62.58;95643.31;5070784;28;20005;-64
2022/09/06 01:50:07;;;;;;;;;;;;;;;20.73;62.67;95647.25;5052574;28;20540;-64
2022/09/06 01:52:44;;;;;;;;;;;;;;;20.91;61.86;95642.16;5070301;28;20017;-65
2022/09/06 01:55:12;;;;;;;;;;;;;;;20.89;61.82;95642.53;5070406;28;20122;-64
2022/09/06 01:57:46;;;;;;;;;;;;;;;20.87;61.73;95639.38;5069090;28;20498;-64
2022/09/06 02:00:13;;;;;;;;;;;;;;;20.86;61.66;95637.06;5070180;28;20067;-64
2022/09/06 02:02:54;;;;;;;;;;;;;;;20.73;62.16;95644.53;5051463;28;20104;-65
2022/09/06 02:05:23;;;;;;;;;;;;;;;20.67;62.23;95638.63;5069746;28;20001;-64
2022/09/06 02:07:50;;;;;;;;;;;;;;;20.57;62.49;95628.38;5070158;28;20009;-64
2022/09/06 02:10:20;;;;;;;;;;;;;;;20.51;62.41;95638.69;5052215;28;20023;-65
2022/09/06 02:12:50;;;;;;;;;;;;;;;20.60;62.46;95637.69;5069987;28;20047;-66
2022/09/06 02:15:22;;;;;;;;;;;;;;;20.55;62.41;95630.66;5070285;28;20470;-64
2022/09/06 02:17:56;;;;;;;;;;;;;;;20.52;62.42;95634.06;5049928;28;20025;-64
2022/09/06 02:20:24;;;;;;;;;;;;;;;20.52;62.50;95636.75;5067066;28;20017;-65
2022/09/06 02:22:51;;;;;;;;;;;;;;;20.50;62.49;95634.44;5068252;28;20501;-64
2022/09/06 02:25:30;;;;;;;;;;;;;;;20.13;62.31;95580.00;5070039;28;20050;-64
2022/09/06 02:27:55;;;;;;;;;;;;;;;20.48;62.47;95636.72;5069396;28;20020;-66
2022/09/06 02:30:21;;;;;;;;;;;;;;;20.47;62.45;95639.75;5067178;28;20009;-64
2022/09/06 02:32:52;;;;;;;;;;;;;;;20.63;61.78;95651.28;5069375;28;20012;-64
2022/09/06 02:35:17;;;;;;;;;;;;;;;20.65;61.61;95640.13;5068214;28;20013;-65
2022/09/06 02:37:43;;;;;;;;;;;;;;;20.62;61.55;95636.19;5069621;28;20075;-64
2022/09/06 02:40:09;;;;;;;;;;;;;;;20.63;61.31;95634.31;5067653;28;20016;-64
2022/09/06 02:42:34;;;;;;;;;;;;;;;20.61;61.37;95637.34;5069461;28;20477;-64
2022/09/06 02:44:59;;;;;;;;;;;;;;;20.66;61.13;95633.56;5050585;28;20017;-65
2022/09/06 02:47:25;;;;;;;;;;;;;;;20.63;61.20;95637.78;5069073;28;20021;-64
2022/09/06 02:49:50;;;;;;;;;;;;;;;20.63;61.21;95640.50;5067292;28;20058;-65
2022/09/06 02:52:16;;;;;;;;;;;;;;;20.56;61.39;95640.31;5050503;28;20009;-64
2022/09/06 02:54:41;;;;;;;;;;;;;;;20.57;61.44;95643.81;5069539;28;20014;-64
2022/09/06 02:57:06;;;;;;;;;;;;;;;20.54;61.47;95639.91;5049794;28;20013;-64
2022/09/06 02:59:32;;;;;;;;;;;;;;;20.53;61.27;95643.75;5069388;28;20005;-64
2022/09/06 03:01:57;;;;;;;;;;;;;;;20.43;61.36;95639.66;5067369;28;20021;-65
2022/09/06 03:04:22;;;;;;;;;;;;;;;20.36;61.60;95644.91;5069144;28;20005;-64
2022/09/06 03:06:47;;;;;;;;;;;;;;;20.28;61.48;95637.81;5067016;28;20021;-64
2022/09/06 03:09:12;;;;;;;;;;;;;;;20.25;61.54;95644.69;5071247;28;20005;-64
2022/09/06 03:11:38;;;;;;;;;;;;;;;20.23;61.37;95638.84;5072359;28;20013;-64
2022/09/06 03:14:03;;;;;;;;;;;;;;;20.23;61.38;95633.47;5073123;28;20299;-65
2022/09/06 03:16:28;;;;;;;;;;;;;;;20.21;61.24;95632.22;5071212;28;20009;-64
2022/09/06 03:18:54;;;;;;;;;;;;;;;20.18;61.24;95633.72;5073290;28;20009;-64
2022/09/06 03:21:19;;;;;;;;;;;;;;;20.17;61.26;95632.19;5054384;28;20473;-64
2022/09/06 03:23:44;;;;;;;;;;;;;;;20.17;61.16;95626.78;5067202;28;20041;-65
2022/09/06 03:26:10;;;;;;;;;;;;;;;20.16;61.11;95619.78;5059416;28;20049;-64
2022/09/06 03:28:35;;;;;;;;;;;;;;;20.17;60.92;95621.38;5072000;28;20104;-64
2022/09/06 03:31:00;;;;;;;;;;;;;;;20.16;60.85;95619.00;5071850;28;20013;-64
2022/09/06 03:33:25;;;;;;;;;;;;;;;20.11;61.08;95625.47;5070863;28;20039;-64
2022/09/06 03:35:52;;;;;;;;;;;;;;;20.07;61.05;95621.16;5071538;28;20372;-64
2022/09/06 03:38:17;;;;;;;;;;;;;;;20.03;61.03;95621.06;5071358;28;20014;-64
2022/09/06 03:40:44;;;;;;;;;;;;;;;20.02;60.95;95618.72;5071836;28;20107;-64
2022/09/06 03:43:09;;;;;;;;;;;;;;;19.98;60.98;95614.00;5070910;28;20542;-64
2022/09/06 03:45:34;;;;;;;;;;;;;;;19.95;60.96;95613.91;5071769;28;20013;-64
2022/09/06 03:47:59;;;;;;;;;;;;;;;19.93;61.25;95610.81;5072082;28;20112;-64
2022/09/06 03:50:24;;;;;;;;;;;;;;;19.90;61.21;95616.91;5053268;28;20112;-64
2022/09/06 03:52:50;;;;;;;;;;;;;;;19.88;61.27;95616.47;5071643;28;20049;-64
2022/09/06 03:55:15;;;;;;;;;;;;;;;19.86;61.45;95619.53;5071909;28;20477;-64
2022/09/06 03:57:40;;;;;;;;;;;;;;;19.87;61.65;95617.63;5072315;28;20013;-64
2022/09/06 04:00:06;;;;;;;;;;;;;;;19.87;61.54;95614.91;5071881;28;20013;-65
2022/09/06 04:02:31;;;;;;;;;;;;;;;19.88;61.56;95621.88;5070778;28;20128;-64
2022/09/06 04:04:56;;;;;;;;;;;;;;;19.87;61.62;95615.69;5070809;28;20005;-65
2022/09/06 04:07:21;;;;;;;;;;;;;;;19.90;61.48;95623.06;5070387;28;20058;-64
2022/09/06 04:09:47;;;;;;;;;;;;;;;19.93;61.43;95625.09;5071363;28;20054;-65
2022/09/06 04:12:12;;;;;;;;;;;;;;;19.92;61.12;95637.03;5070762;28;20020;-64
2022/09/06 04:14:37;;;;;;;;;;;;;;;19.94;61.27;95628.56;5072230;28;20013;-64
2022/09/06 04:17:02;;;;;;;;;;;;;;;19.87;61.46;95628.41;5070182;28;20016;-65
2022/09/06 04:19:28;;;;;;;;;;;;;;;19.84;61.28;95634.50;5072320;28;20024;-65
2022/09/06 04:21:53;;;;;;;;;;;;;;;19.87;61.37;95633.81;5069084;28;20009;-65
2022/09/06 04:24:18;;;;;;;;;;;;;;;19.89;61.32;95624.22;5072186;28;20010;-65
2022/09/06 04:26:43;;;;;;;;;;;;;;;19.95;60.91;95617.41;5071266;28;20009;-65
2022/09/06 04:29:08;;;;;;;;;;;;;;;19.95;61.00;95613.91;5070484;28;20016;-64
2022/09/06 04:31:34;;;;;;;;;;;;;;;19.91;60.89;95619.25;5069551;28;20017;-65
2022/09/06 04:33:59;;;;;;;;;;;;;;;19.91;61.02;95613.88;5071672;28;20551;-65
2022/09/06 04:36:24;;;;;;;;;;;;;;;19.97;60.91;95614.38;5049236;28;20103;-63
2022/09/06 04:38:49;;;;;;;;;;;;;;;20.09;60.46;95618.84;5069371;28;20024;-64
2022/09/06 04:41:17;;;;;;;;;;;;;;;20.07;60.55;95616.53;5067080;28;20009;-63
2022/09/06 04:43:42;;;;;;;;;;;;;;;20.06;60.63;95625.72;5071432;28;20056;-63
2022/09/06 04:46:07;;;;;;;;;;;;;;;20.09;60.52;95626.97;5069371;28;20033;-63
2022/09/06 04:48:33;;;;;;;;;;;;;;;20.10;60.47;95634.69;5068972;28;20017;-63
2022/09/06 04:50:58;;;;;;;;;;;;;;;20.16;59.92;95638.69;5070733;28;20016;-62
2022/09/06 04:53:23;;;;;;;;;;;;;;;20.12;60.10;95631.66;5067840;28;20369;-62
2022/09/06 04:55:48;;;;;;;;;;;;;;;20.14;59.85;95634.78;5071477;28;20020;-64
2022/09/06 04:58:13;;;;;;;;;;;;;;;20.22;60.09;95623.78;5069070;28;20010;-67
2022/09/06 05:00:40;;;;;;;;;;;;;;;20.26;60.08;95629.25;5070426;28;20032;-66
2022/09/06 05:03:05;;;;;;;;;;;;;;;20.34;59.80;95625.56;5071028;28;20090;-69
2022/09/06 05:05:30;;;;;;;;;;;;;;;20.37;59.35;95630.28;5053229;28;20115;-69
2022/09/06 05:07:56;;;;;;;;;;;;;;;20.43;59.10;95636.97;5052409;28;20013;-69
2022/09/06 05:10:22;;;;;;;;;;;;;;;20.48;59.02;95635.94;5070977;28;20001;-72
2022/09/06 05:12:48;;;;;;;;;;;;;;;20.57;58.90;95638.41;5070528;28;20358;-68
2022/09/06 05:15:13;;;;;;;;;;;;;;;20.63;58.49;95645.88;5070869;28;20005;-64
2022/09/06 05:17:38;;;;;;;;;;;;;;;20.74;58.06;95656.91;5070100;28;20078;-64
2022/09/06 05:20:04;;;;;;;;;;;;;;;20.82;57.76;95657.81;5070639;28;20010;-63
2022/09/06 05:22:29;;;;;;;;;;;;;;;20.53;57.66;95608.63;5069718;28;20547;-65
2022/09/06 05:24:54;;;;;;;;;;;;;;;20.97;57.60;95656.94;5051547;28;20016;-64
2022/09/06 05:27:19;;;;;;;;;;;;;;;21.14;57.27;95656.53;5051256;28;20009;-65
2022/09/06 05:29:45;;;;;;;;;;;;;;;21.33;56.81;95663.81;5068202;28;20036;-63
2022/09/06 05:32:10;;;;;;;;;;;;;;;21.39;56.32;95675.13;5067580;28;20024;-62
2022/09/06 05:34:35;;;;;;;;;;;;;;;21.66;56.37;95676.00;5069979;28;20009;-64
2022/09/06 05:37:01;;;;;;;;;;;;;;;21.83;55.63;95680.91;5067212;28;20016;-64
2022/09/06 05:39:26;;;;;;;;;;;;;;;22.14;55.26;95685.28;5070115;28;20010;-64
2022/09/06 05:41:51;;;;;;;;;;;;;;;22.28;54.35;95684.72;5052650;28;20017;-63
2022/09/06 05:44:16;;;;;;;;;;;;;;;22.59;53.97;95680.88;5068834;28;20013;-67
2022/09/06 05:46:42;;;;;;;;;;;;;;;22.63;53.41;95689.84;5050296;28;20133;-65
2022/09/06 05:49:09;;;;;;;;;;;;;;;22.36;53.86;95708.03;5052012;28;20014;-65
2022/09/06 05:51:34;;;;;;;;;;;;;;;22.64;53.53;95702.25;5050926;28;20013;-65
2022/09/06 05:53:59;;;;;;;;;;;;;;;22.58;53.55;95703.72;5067835;28;20544;-65
2022/09/06 05:56:25;;;;;;;;;;;;;;;22.49;54.02;95705.91;5050700;28;20010;-64
2022/09/06 05:58:50;;;;;;;;;;;;;;;22.43;54.80;95707.38;5050807;28;20104;-65
2022/09/06 06:01:26;;;;;;;;;;;;;;;22.18;55.62;95715.16;5050029;28;20017;-66
2022/09/06 06:03:56;;;;;;;;;;;;;;;22.24;56.16;95714.47;5066552;28;20013;-68
2022/09/06 06:06:22;;;;;;;;;;;;;;;22.58;55.55;95719.97;5069809;28;20005;-65
2022/09/06 06:08:47;;;;;;;;;;;;;;;22.60;55.55;95728.50;5050232;28;20015;-67
2022/09/06 06:11:13;;;;;;;;;;;;;;;22.79;55.44;95733.81;5069651;28;20013;-67
2022/09/06 06:13:38;;;;;;;;;;;;;;;23.15;55.08;95728.84;5049532;28;20010;-67
2022/09/06 06:16:07;;;;;;;;;;;;;;;23.39;54.26;95730.28;5065512;28;20475;-67
2022/09/06 06:18:33;;;;;;;;;;;;;;;23.66;53.75;95730.97;5047930;28;20028;-68
2022/09/06 06:21:15;;;;;;;;;;;;;;;23.84;53.27;95717.53;5050793;28;20549;-68
2022/09/06 06:23:41;;;;;;;;;;;;;;;24.04;52.82;95724.31;5068158;28;20112;-68
2022/09/06 06:26:07;;;;;;;;;;;;;;;24.31;52.14;95734.97;5051770;28;20104;-68
2022/09/06 06:28:32;;;;;;;;;;;;;;;24.62;51.54;95739.13;5051539;28;20573;-67
2022/09/06 06:30:58;;;;;;;;;;;;;;;24.93;50.78;95736.91;5068841;28;20005;-67
2022/09/06 06:33:23;;;;;;;;;;;;;;;25.16;50.16;95737.44;5069188;28;20016;-68
2022/09/06 06:35:55;;;;;;;;;;;;;;;25.37;49.71;95734.00;5051345;28;20011;-68
2022/09/06 06:38:20;;;;;;;;;;;;;;;25.60;49.35;95736.41;5067254;28;20012;-67
2022/09/06 06:40:45;;;;;;;;;;;;;;;24.70;49.22;95739.91;5051616;28;20025;-67
2022/09/06 06:43:10;;;;;;;;;;;;;;;24.79;49.75;95732.97;5050992;28;20407;-67
2022/09/06 06:45:35;;;;;;;;;;;;;;;24.42;50.58;95752.19;5069653;28;20540;-68
2022/09/06 06:48:01;;;;;;;;;;;;;;;24.86;50.40;95745.81;5068517;28;20049;-68
2022/09/06 06:50:26;;;;;;;;;;;;;;;24.86;49.63;95760.22;5050368;28;20062;-67
2022/09/06 06:52:53;;;;;;;;;;;;;;;24.73;50.39;95758.22;5067060;28;20032;-68
2022/09/06 06:55:18;;;;;;;;;;;;;;;24.85;49.82;95766.81;5051422;28;20025;-67
2022/09/06 06:57:43;;;;;;;;;;;;;;;25.59;48.77;95768.31;5084804;28;20018;-68
2022/09/06 07:00:10;;;;;;;;;;;;;;;25.64;47.36;95756.25;5068344;28;20709;-67
2022/09/06 07:02:36;;;;;;;;;;;;;;;25.14;46.79;95661.59;5051178;28;20009;-68
2022/09/06 07:05:01;;;;;;;;;;;;;;;26.08;46.81;95758.66;5051341;28;20016;-68
2022/09/06 07:07:26;;;;;;;;;;;;;;;26.51;46.13;95755.94;5051312;28;20013;-68
2022/09/06 07:09:51;;;;;;;;;;;;;;;26.65;45.37;95750.47;5067276;28;20020;-68
2022/09/06 07:12:17;;;;;;;;;;;;;;;26.41;45.34;95762.16;5084594;28;20016;-67
2022/09/06 07:14:42;;;;;;;;;;;;;;;26.64;44.52;95759.06;5069340;28;20005;-68
2022/09/06 07:17:07;;;;;;;;;;;;;;;26.47;44.80;95760.66;5069515;28;20009;-68
2022/09/06 07:19:32;;;;;;;;;;;;;;;26.69;44.66;95764.09;5065240;28;20081;-68
2022/09/06 07:21:57;;;;;;;;;;;;;;;26.80;44.21;95770.31;5067662;28;20017;-68
2022/09/06 07:24:23;;;;;;;;;;;;;;;26.69;44.34;95775.81;5067939;28;20501;-68
2022/09/06 07:26:48;;;;;;;;;;;;;;;26.00;44.89;95775.41;5046658;28;20449;-68
2022/09/06 07:29:13;;;;;;;;;;;;;;;26.68;44.63;95768.00;5069227;28;20458;-68
2022/09/06 07:31:38;;;;;;;;;;;;;;;26.62;44.31;95773.09;5068426;28;20013;-68
2022/09/06 07:34:04;;;;;;;;;;;;;;;26.59;44.06;95770.38;5068627;28;20005;-68
2022/09/06 07:36:29;;;;;;;;;;;;;;;26.69;43.87;95762.16;5069378;28;20020;-69
2022/09/06 07:38:55;;;;;;;;;;;;;;;26.70;44.60;95762.94;5067408;28;20009;-68
2022/09/06 07:41:21;;;;;;;;;;;;;;;26.89;44.32;95770.69;5066740;28;20024;-69
2022/09/06 07:43:47;;;;;;;;;;;;;;;26.95;44.44;95762.88;5050841;28;20393;-68
2022/09/06 07:46:16;;;;;;;;;;;;;;;27.01;44.07;95761.28;5051083;28;20005;-69
2022/09/06 07:48:42;;;;;;;;;;;;;;;27.14;44.15;95756.22;5069279;28;20016;-69
2022/09/06 07:51:11;;;;;;;;;;;;;;;27.34;43.51;95762.75;5068076;28;20014;-68
2022/09/06 07:53:38;;;;;;;;;;;;;;;27.15;44.09;95755.81;5049570;28;20005;-67
2022/09/06 07:56:05;;;;;;;;;;;;;;;27.51;43.87;95760.34;5069235;28;20032;-67
2022/09/06 07:58:30;;;;;;;;;;;;;;;27.62;43.33;95755.59;5054660;28;20009;-67
2022/09/06 08:01:14;;;;;;;;;;;;;;;27.70;43.55;95755.19;5053517;28;20386;-67
2022/09/06 08:03:39;;;;;;;;;;;;;;;27.80;43.34;95733.66;5052563;28;20020;-68
2022/09/06 08:06:05;;;;;;;;;;;;;;;28.15;42.88;95738.84;5059603;28;20013;-67
2022/09/06 08:08:30;;;;;;;;;;;;;;;28.56;41.94;95729.13;5054525;28;20597;-67
2022/09/06 08:10:55;;;;;;;;;;;;;;;29.00;41.51;95725.53;5068498;28;20048;-68
2022/09/06 08:13:20;;;;;;;;;;;;;;;29.31;40.46;95729.06;5072431;28;20005;-67
2022/09/06 08:15:45;;;;;;;;;;;;;;;29.80;40.18;95713.16;5072455;28;20013;-68
2022/09/06 08:18:11;;;;;;;;;;;;;;;30.34;39.35;95717.78;5070027;28;20130;-68
2022/09/06 08:20:36;;;;;;;;;;;;;;;30.55;38.29;95704.44;5070750;28;20017;-68
2022/09/06 08:23:01;;;;;;;;;;;;;;;30.84;37.23;95695.72;5053811;28;20669;-69
2022/09/06 08:25:26;;;;;;;;;;;;;;;30.91;37.00;95697.53;5070505;28;20017;-68
2022/09/06 08:27:53;;;;;;;;;;;;;;;30.89;36.51;95700.72;5072293;28;20005;-70
2022/09/06 08:30:19;;;;;;;;;;;;;;;30.78;36.75;95705.66;5071107;28;20018;-67
2022/09/06 08:32:44;;;;;;;;;;;;;;;30.66;36.75;95714.47;5053258;28;20079;-69
2022/09/06 08:35:10;;;;;;;;;;;;;;;29.90;37.60;95714.97;5072354;28;20313;-67
2022/09/06 08:37:35;;;;;;;;;;;;;;;29.90;38.05;95706.72;5072175;28;20013;-70
2022/09/06 08:40:00;;;;;;;;;;;;;;;29.96;38.13;95705.06;5069530;28;20013;-67
2022/09/06 08:42:26;;;;;;;;;;;;;;;30.03;37.80;95702.19;5070823;28;20382;-68
2022/09/06 08:44:51;;;;;;;;;;;;;;;30.20;38.29;95700.38;5071490;28;20013;-68
2022/09/06 08:47:17;;;;;;;;;;;;;;;30.33;37.64;95697.81;5071093;28;20013;-70
2022/09/06 08:49:47;;;;;;;;;;;;;;;30.40;37.62;95705.13;5070084;28;20363;-69
2022/09/06 08:52:15;;;;;;;;;;;;;;;30.44;37.96;95709.38;5051275;28;20055;-70
2022/09/06 08:54:59;;;;;;;;;;;;;;;30.49;37.75;95717.13;5054887;28;20210;-69
2022/09/06 08:57:30;;;;;;;;;;;;;;;30.43;37.46;95710.56;5071603;28;20012;-70
2022/09/06 09:00:00;;;;;;;;;;;;;;;30.57;37.58;95706.03;5071432;28;20009;-69
2022/09/06 09:02:26;;;;;;;;;;;;;;;30.71;38.06;95705.75;5068932;28;20397;-69
2022/09/06 09:04:56;;;;;;;;;;;;;;;30.93;36.87;95692.41;5071530;28;20054;-70
2022/09/06 09:07:27;;;;;;;;;;;;;;;30.73;36.58;95638.25;5053220;28;20017;-69
2022/09/06 09:09:53;;;;;;;;;;;;;;;31.11;36.31;95679.06;5051880;28;20014;-69
2022/09/06 09:12:21;;;;;;;;;;;;;;;31.00;36.48;95679.28;5070925;28;20365;-69
2022/09/06 09:14:47;;;;;;;;;;;;;;;30.80;36.45;95671.06;5052729;28;20013;-70
2022/09/06 09:17:20;;;;;;;;;;;;;;;30.29;37.76;95672.38;5070413;28;20095;-69
2022/09/06 09:19:45;;;;;;;;;;;;;;;30.07;38.07;95674.72;5070783;28;20096;-69
2022/09/06 09:22:13;;;;;;;;;;;;;;;29.68;38.38;95669.84;5070296;28;20087;-70
2022/09/06 09:24:38;;;;;;;;;;;;;;;29.49;38.86;95672.06;5070337;28;20009;-69
2022/09/06 09:27:11;;;;;;;;;;;;;;;29.14;39.20;95670.59;5051689;28;20617;-69
2022/09/06 09:29:52;;;;;;;;;;;;;;;29.12;39.38;95659.25;5071160;28;20006;-69
2022/09/06 09:32:28;;;;;;;;;;;;;;;28.97;39.96;95655.94;5069934;28;20017;-69
2022/09/06 09:34:53;;;;;;;;;;;;;;;29.01;39.49;95655.88;5051641;28;20036;-69
2022/09/06 09:37:23;;;;;;;;;;;;;;;28.99;39.28;95655.53;5070642;28;20469;-70
2022/09/06 09:39:49;;;;;;;;;;;;;;;28.74;40.22;95659.31;5052586;28;20116;-73
2022/09/06 09:42:29;;;;;;;;;;;;;;;28.32;40.81;95643.34;5069084;28;20010;-68
2022/09/06 09:44:55;;;;;;;;;;;;;;;28.66;39.67;95646.91;5048129;28;20024;-67
2022/09/06 09:47:24;;;;;;;;;;;;;;;28.82;39.52;95642.78;5053349;28;20103;-67
2022/09/06 09:49:49;;;;;;;;;;;;;;;28.83;39.50;95636.16;5070984;28;20013;-68
2022/09/06 09:52:16;;;;;;;;;;;;;;;28.90;39.29;95641.53;5070166;28;20006;-67
2022/09/06 09:54:43;;;;;;;;;;;;;;;28.93;39.72;95644.22;5069578;28;20017;-67
2022/09/06 09:57:10;;;;;;;;;;;;;;;29.02;39.31;95641.00;5070625;28;20009;-67
2022/09/06 09:59:35;;;;;;;;;;;;;;;29.32;39.36;95629.22;5052299;28;20013;-67
2022/09/06 10:02:01;;;;;;;;;;;;;;;29.43;38.67;95632.63;5052322;28;20782;-68
2022/09/06 10:04:45;;;;;;;;;;;;;;;29.54;38.61;95626.22;5068511;28;20056;-67
2022/09/06 10:07:11;;;;;;;;;;;;;;;29.57;38.40;95626.16;5068920;28;20038;-68
2022/09/06 10:09:38;;;;;;;;;;;;;;;29.74;37.73;95616.09;5066124;28;20125;-67
2022/09/06 10:12:03;;;;;;;;;;;;;;;29.66;37.51;95622.88;5050376;28;20504;-67
2022/09/06 10:14:30;;;;;;;;;;;;;;;29.67;37.90;95625.19;5052369;28;20009;-67
2022/09/06 10:16:56;;;;;;;;;;;;;;;29.36;37.70;95619.00;5052327;28;20016;-68
2022/09/06 10:19:42;;;;;;;;;;;;;;;29.47;37.82;95613.34;5050581;28;20017;-67
2022/09/06 10:22:12;;;;;;;;;;;;;;;29.59;37.80;95607.34;5068026;28;20009;-67
2022/09/06 10:24:46;;;;;;;;;;;;;;;29.64;37.75;95620.56;5070144;28;20053;-67
2022/09/06 10:27:12;;;;;;;;;;;;;;;29.55;37.42;95619.53;5052077;28;20009;-67
2022/09/06 10:29:41;;;;;;;;;;;;;;;29.56;37.77;95616.38;5069917;28;20229;-68
2022/09/06 10:32:24;;;;;;;;;;;;;;;29.61;37.82;95615.91;5068767;28;20008;-67
2022/09/06 10:34:52;;;;;;;;;;;;;;;29.52;38.54;95621.88;5069680;28;20064;-67
2022/09/06 10:37:29;;;;;;;;;;;;;;;29.45;39.01;95613.78;5068073;28;20462;-66
2022/09/06 10:39:58;;;;;;;;;;;;;;;29.48;38.69;95623.94;5049823;28;20100;-67
2022/09/06 10:42:23;;;;;;;;;;;;;;;29.66;37.44;95614.66;5039234;28;20492;-67
2022/09/06 10:44:54;;;;;;;;;;;;;;;29.04;38.73;95615.97;5070174;28;20005;-67
2022/09/06 10:47:22;;;;;;;;;;;;;;;29.19;38.08;95617.31;5069851;28;20009;-68
2022/09/06 10:49:51;;;;;;;;;;;;;;;28.16;38.49;95613.81;5069266;28;20009;-67
2022/09/06 10:52:20;;;;;;;;;;;;;;;28.19;39.53;95610.25;5067566;28;20008;-68
2022/09/06 10:54:46;;;;;;;;;;;;;;;29.04;38.85;95610.47;5050725;28;20013;-67
2022/09/06 10:57:24;;;;;;;;;;;;;;;29.50;38.35;95616.06;5051861;28;20063;-67
2022/09/06 10:59:54;;;;;;;;;;;;;;;29.69;37.78;95600.91;5069854;28;20473;-67
2022/09/06 11:02:42;;;;;;;;;;;;;;;29.92;37.08;95604.81;5068273;28;20020;-68
2022/09/06 11:05:10;;;;;;;;;;;;;;;28.61;39.37;95597.28;5051304;28;20372;-68
2022/09/06 11:07:48;;;;;;;;;;;;;;;29.54;38.41;95598.81;5068606;28;20013;-68
2022/09/06 11:10:19;;;;;;;;;;;;;;;29.79;37.78;95599.19;5050788;28;20009;-67
2022/09/06 11:12:49;;;;;;;;;;;;;;;29.95;37.63;95593.81;5050905;28;20013;-67
2022/09/06 11:15:16;;;;;;;;;;;;;;;30.23;37.32;95589.00;5049990;28;20013;-67
2022/09/06 11:17:54;;;;;;;;;;;;;;;30.31;37.13;95590.44;5048602;28;20423;-68
2022/09/06 11:20:27;;;;;;;;;;;;;;;29.32;38.76;95587.34;5057242;28;20107;-67
2022/09/06 11:23:01;;;;;;;;;;;;;;;29.88;38.31;95579.44;5066231;28;20070;-68
2022/09/06 11:25:40;;;;;;;;;;;;;;;29.59;38.64;95585.41;5066119;28;20015;-66
2022/09/06 11:28:08;;;;;;;;;;;;;;;30.32;37.72;95582.97;5066810;28;20039;-68
2022/09/06 11:30:33;;;;;;;;;;;;;;;30.64;36.92;95574.84;5053746;28;20049;-66
2022/09/06 11:33:16;;;;;;;;;;;;;;;30.45;37.21;95570.91;5054472;28;20056;-67
2022/09/06 11:35:41;;;;;;;;;;;;;;;29.81;38.17;95574.84;5073445;28;20051;-68
2022/09/06 11:38:07;;;;;;;;;;;;;;;29.35;39.29;95576.34;5071399;28;20052;-68
2022/09/06 11:40:36;;;;;;;;;;;;;;;30.40;37.59;95573.38;5054889;28;20239;-68
2022/09/06 11:43:02;;;;;;;;;;;;;;;30.28;38.09;95569.31;5071965;28;20481;-67
2022/09/06 11:45:45;;;;;;;;;;;;;;;30.07;37.63;95570.47;5054708;28;20020;-66
2022/09/06 11:48:36;;;;;;;;;;;;;;;30.52;37.92;95573.53;5071718;28;20005;-67
2022/09/06 11:51:05;;;;;;;;;;;;;;;30.74;37.29;95562.91;5034067;28;20063;-68
2022/09/06 11:53:32;;;;;;;;;;;;;;;30.85;36.98;95565.41;5071289;28;20017;-66
2022/09/06 11:56:00;;;;;;;;;;;;;;;30.44;37.56;95561.16;5072638;28;20009;-66
2022/09/06 11:58:31;;;;;;;;;;;;;;;30.69;37.60;95560.63;5072814;28;20009;-68
2022/09/06 12:01:11;;;;;;;;;;;;;;;30.81;36.97;95564.72;5072716;28;20013;-67
2022/09/06 12:03:46;;;;;;;;;;;;;;;29.81;38.33;95557.63;5052717;28;20060;-66
2022/09/06 12:06:21;;;;;;;;;;;;;;;30.07;37.50;95564.22;5072250;28;20151;-65
2022/09/06 12:08:47;;;;;;;;;;;;;;;29.76;38.19;95558.88;5086471;28;20012;-66
2022/09/06 12:11:24;;;;;;;;;;;;;;;28.91;39.93;95558.19;5054172;28;20560;-66
2022/09/06 12:13:54;;;;;;;;;;;;;;;30.41;37.54;95556.50;5050984;28;20010;-67
2022/09/06 12:16:20;;;;;;;;;;;;;;;31.19;36.70;95550.56;5051447;28;20351;-67
2022/09/06 12:18:45;;;;;;;;;;;;;;;31.46;35.12;95553.06;5055743;28;20119;-67
2022/09/06 12:21:29;;;;;;;;;;;;;;;31.44;35.56;95550.75;5071614;28;20012;-67
2022/09/06 12:23:55;;;;;;;;;;;;;;;31.63;36.20;95542.81;5051912;28;20005;-67
2022/09/06 12:26:43;;;;;;;;;;;;;;;30.29;37.90;95548.91;5034515;28;20063;-67
2022/09/06 12:29:09;;;;;;;;;;;;;;;31.28;36.50;95545.28;5052350;28;20589;-67
2022/09/06 12:31:39;;;;;;;;;;;;;;;30.94;36.43;95540.13;5056095;28;20020;-67
2022/09/06 12:34:12;;;;;;;;;;;;;;;30.34;37.52;95537.44;5070893;28;20486;-66
2022/09/06 12:36:46;;;;;;;;;;;;;;;31.67;35.73;95532.50;5071289;28;20009;-66
2022/09/06 12:39:12;;;;;;;;;;;;;;;32.49;34.66;95530.34;5072341;28;20060;-67
2022/09/06 12:41:39;;;;;;;;;;;;;;;33.10;33.80;95524.59;5052871;28;20049;-66
2022/09/06 12:44:06;;;;;;;;;;;;;;;32.50;34.94;95520.88;5071312;28;20006;-67
2022/09/06 12:46:32;;;;;;;;;;;;;;;31.05;36.50;95526.91;5072088;28;20505;-67
2022/09/06 12:49:00;;;;;;;;;;;;;;;31.65;35.15;95524.72;5071059;28;20063;-68
2022/09/06 12:51:25;;;;;;;;;;;;;;;32.57;34.57;95524.22;5070045;28;20005;-68